sensor_id;sensor_type;location;lat;lon;timestamp;temperature;humidity
9837;DHT22;4957;51.412;6.724;2023-02-21T00:01:55;10.00;99.90
9837;DHT22;4957;51.412;6.724;2023-02-21T00:04:39;10.00;99.90
9837;DHT22;4957;51.412;6.724;2023-02-21T00:07:23;10.00;99.90
9837;DHT22;4957;51.412;6.724;2023-02-21T00:10:10;10.00;99.90
9837;DHT22;4957;51.412;6.724;2023-02-21T00:12:55;10.00;99.90
9837;DHT22;4957;51.412;6.724;2023-02-21T00:15:39;10.00;99.90
9837;DHT22;4957;51.412;6.724;2023-02-21T00:18:23;10.00;99.90
9837;DHT22;4957;51.412;6.724;2023-02-21T00:21:07;9.90;99.90
9837;DHT22;4957;51.412;6.724;2023-02-21T00:23:51;10.00;99.90
9837;DHT22;4957;51.412;6.724;2023-02-21T00:26:35;10.00;99.90
9837;DHT22;4957;51.412;6.724;2023-02-21T00:29:19;9.90;99.90
9837;DHT22;4957;51.412;6.724;2023-02-21T00:32:03;9.90;99.90
9837;DHT22;4957;51.412;6.724;2023-02-21T00:34:47;9.90;99.90
9837;DHT22;4957;51.412;6.724;2023-02-21T00:37:31;9.90;99.90
9837;DHT22;4957;51.412;6.724;2023-02-21T00:40:16;9.90;99.90
9837;DHT22;4957;51.412;6.724;2023-02-21T00:43:00;9.90;99.90
9837;DHT22;4957;51.412;6.724;2023-02-21T00:45:45;9.90;99.90
9837;DHT22;4957;51.412;6.724;2023-02-21T00:48:29;9.90;99.90
9837;DHT22;4957;51.412;6.724;2023-02-21T00:51:15;9.90;99.90
9837;DHT22;4957;51.412;6.724;2023-02-21T00:53:59;9.90;99.90
9837;DHT22;4957;51.412;6.724;2023-02-21T00:56:44;9.90;99.90
9837;DHT22;4957;51.412;6.724;2023-02-21T00:59:28;9.90;99.90
9837;DHT22;4957;51.412;6.724;2023-02-21T01:02:12;9.90;99.90
9837;DHT22;4957;51.412;6.724;2023-02-21T01:04:57;9.90;99.90
9837;DHT22;4957;51.412;6.724;2023-02-21T01:07:41;9.90;99.90
9837;DHT22;4957;51.412;6.724;2023-02-21T01:10:25;9.90;99.90
9837;DHT22;4957;51.412;6.724;2023-02-21T01:13:09;9.90;99.90
9837;DHT22;4957;51.412;6.724;2023-02-21T01:15:53;9.90;99.90
9837;DHT22;4957;51.412;6.724;2023-02-21T01:18:37;9.80;99.90
9837;DHT22;4957;51.412;6.724;2023-02-21T01:21:21;9.90;99.90
9837;DHT22;4957;51.412;6.724;2023-02-21T01:24:06;9.80;99.90
9837;DHT22;4957;51.412;6.724;2023-02-21T01:26:51;9.90;99.90
9837;DHT22;4957;51.412;6.724;2023-02-21T01:29:35;9.90;99.90
9837;DHT22;4957;51.412;6.724;2023-02-21T01:32:20;9.90;99.90
9837;DHT22;4957;51.412;6.724;2023-02-21T01:35:05;9.90;99.90
9837;DHT22;4957;51.412;6.724;2023-02-21T01:37:49;9.90;99.90
9837;DHT22;4957;51.412;6.724;2023-02-21T01:40:33;9.80;99.90
9837;DHT22;4957;51.412;6.724;2023-02-21T01:43:20;9.90;99.90
9837;DHT22;4957;51.412;6.724;2023-02-21T01:46:05;9.80;99.90
9837;DHT22;4957;51.412;6.724;2023-02-21T01:48:53;9.80;99.90
9837;DHT22;4957;51.412;6.724;2023-02-21T01:51:40;9.80;99.90
9837;DHT22;4957;51.412;6.724;2023-02-21T01:54:28;9.80;99.90
9837;DHT22;4957;51.412;6.724;2023-02-21T01:57:13;9.80;99.90
9837;DHT22;4957;51.412;6.724;2023-02-21T01:59:59;9.80;99.90
9837;DHT22;4957;51.412;6.724;2023-02-21T02:05:37;9.80;99.90
9837;DHT22;4957;51.412;6.724;2023-02-21T02:08:27;9.80;99.90
9837;DHT22;4957;51.412;6.724;2023-02-21T02:14:49;9.80;99.90
9837;DHT22;4957;51.412;6.724;2023-02-21T02:20:42;9.80;99.90
9837;DHT22;4957;51.412;6.724;2023-02-21T02:37:16;9.80;99.90
9837;DHT22;4957;51.412;6.724;2023-02-21T02:39:59;9.80;99.90
9837;DHT22;4957;51.412;6.724;2023-02-21T02:47:36;9.70;99.90
9837;DHT22;4957;51.412;6.724;2023-02-21T02:50:05;9.70;99.90
9837;DHT22;4957;51.412;6.724;2023-02-21T02:52:33;9.80;99.90
9837;DHT22;4957;51.412;6.724;2023-02-21T02:55:01;9.80;99.90
9837;DHT22;4957;51.412;6.724;2023-02-21T02:57:31;9.70;99.90
9837;DHT22;4957;51.412;6.724;2023-02-21T03:00:06;9.80;99.90
9837;DHT22;4957;51.412;6.724;2023-02-21T03:03:09;9.70;99.90
9837;DHT22;4957;51.412;6.724;2023-02-21T03:05:46;9.70;99.90
9837;DHT22;4957;51.412;6.724;2023-02-21T03:08:32;9.70;99.90
9837;DHT22;4957;51.412;6.724;2023-02-21T03:13:42;9.80;99.90
9837;DHT22;4957;51.412;6.724;2023-02-21T03:16:34;9.70;99.90
9837;DHT22;4957;51.412;6.724;2023-02-21T03:19:05;9.70;99.90
9837;DHT22;4957;51.412;6.724;2023-02-21T03:21:38;9.70;99.90
9837;DHT22;4957;51.412;6.724;2023-02-21T03:24:07;9.70;99.90
9837;DHT22;4957;51.412;6.724;2023-02-21T03:26:36;9.70;99.90
9837;DHT22;4957;51.412;6.724;2023-02-21T03:29:03;9.70;99.90
9837;DHT22;4957;51.412;6.724;2023-02-21T03:31:34;9.70;99.90
9837;DHT22;4957;51.412;6.724;2023-02-21T03:34:01;9.70;99.90
9837;DHT22;4957;51.412;6.724;2023-02-21T03:36:27;9.70;99.90
9837;DHT22;4957;51.412;6.724;2023-02-21T03:38:53;9.70;99.90
9837;DHT22;4957;51.412;6.724;2023-02-21T03:41:18;9.70;99.90
9837;DHT22;4957;51.412;6.724;2023-02-21T03:43:44;9.70;99.90
9837;DHT22;4957;51.412;6.724;2023-02-21T03:46:10;9.70;99.90
9837;DHT22;4957;51.412;6.724;2023-02-21T03:48:36;9.70;99.90
9837;DHT22;4957;51.412;6.724;2023-02-21T03:51:01;9.70;99.90
9837;DHT22;4957;51.412;6.724;2023-02-21T03:53:27;9.70;99.90
9837;DHT22;4957;51.412;6.724;2023-02-21T03:55:53;9.70;99.90
9837;DHT22;4957;51.412;6.724;2023-02-21T03:58:19;9.70;99.90
9837;DHT22;4957;51.412;6.724;2023-02-21T04:00:44;9.70;99.90
9837;DHT22;4957;51.412;6.724;2023-02-21T04:03:10;9.70;99.90
9837;DHT22;4957;51.412;6.724;2023-02-21T04:05:36;9.70;99.90
9837;DHT22;4957;51.412;6.724;2023-02-21T04:08:02;9.70;99.90
9837;DHT22;4957;51.412;6.724;2023-02-21T04:10:27;9.70;99.90
9837;DHT22;4957;51.412;6.724;2023-02-21T04:12:53;9.70;99.90
9837;DHT22;4957;51.412;6.724;2023-02-21T04:15:19;9.70;99.90
9837;DHT22;4957;51.412;6.724;2023-02-21T04:17:44;9.70;99.90
9837;DHT22;4957;51.412;6.724;2023-02-21T04:20:10;9.70;99.90
9837;DHT22;4957;51.412;6.724;2023-02-21T04:22:36;9.70;99.90
9837;DHT22;4957;51.412;6.724;2023-02-21T04:25:02;9.70;99.90
9837;DHT22;4957;51.412;6.724;2023-02-21T04:27:27;9.70;99.90
9837;DHT22;4957;51.412;6.724;2023-02-21T04:29:53;9.70;99.90
9837;DHT22;4957;51.412;6.724;2023-02-21T04:32:19;9.60;99.90
9837;DHT22;4957;51.412;6.724;2023-02-21T04:34:44;9.70;99.90
9837;DHT22;4957;51.412;6.724;2023-02-21T04:37:10;9.60;99.90
9837;DHT22;4957;51.412;6.724;2023-02-21T04:39:36;9.70;99.90
9837;DHT22;4957;51.412;6.724;2023-02-21T04:42:01;9.60;99.90
9837;DHT22;4957;51.412;6.724;2023-02-21T04:44:27;9.60;99.90
9837;DHT22;4957;51.412;6.724;2023-02-21T04:46:53;9.70;99.90
9837;DHT22;4957;51.412;6.724;2023-02-21T04:49:18;9.60;99.90
9837;DHT22;4957;51.412;6.724;2023-02-21T04:51:44;9.70;99.90
9837;DHT22;4957;51.412;6.724;2023-02-21T04:54:09;9.60;99.90
9837;DHT22;4957;51.412;6.724;2023-02-21T04:56:35;9.60;99.90
9837;DHT22;4957;51.412;6.724;2023-02-21T04:59:02;9.60;99.90
9837;DHT22;4957;51.412;6.724;2023-02-21T05:01:29;9.60;99.90
9837;DHT22;4957;51.412;6.724;2023-02-21T05:03:55;9.60;99.90
9837;DHT22;4957;51.412;6.724;2023-02-21T05:06:24;9.70;99.90
9837;DHT22;4957;51.412;6.724;2023-02-21T05:08:50;9.60;99.90
9837;DHT22;4957;51.412;6.724;2023-02-21T05:11:17;9.60;99.90
9837;DHT22;4957;51.412;6.724;2023-02-21T05:13:43;9.60;99.90
9837;DHT22;4957;51.412;6.724;2023-02-21T05:16:09;9.60;99.90
9837;DHT22;4957;51.412;6.724;2023-02-21T05:18:35;9.60;99.90
9837;DHT22;4957;51.412;6.724;2023-02-21T05:21:04;9.60;99.90
9837;DHT22;4957;51.412;6.724;2023-02-21T05:23:30;9.60;99.90
9837;DHT22;4957;51.412;6.724;2023-02-21T05:28:25;9.60;99.90
9837;DHT22;4957;51.412;6.724;2023-02-21T05:30:52;9.60;99.90
9837;DHT22;4957;51.412;6.724;2023-02-21T05:33:17;9.60;99.90
9837;DHT22;4957;51.412;6.724;2023-02-21T05:35:43;9.60;99.90
9837;DHT22;4957;51.412;6.724;2023-02-21T05:38:12;9.60;99.90
9837;DHT22;4957;51.412;6.724;2023-02-21T05:40:38;9.60;99.90
9837;DHT22;4957;51.412;6.724;2023-02-21T05:43:03;9.60;99.90
9837;DHT22;4957;51.412;6.724;2023-02-21T05:45:29;9.60;99.90
9837;DHT22;4957;51.412;6.724;2023-02-21T05:47:54;9.60;99.90
9837;DHT22;4957;51.412;6.724;2023-02-21T05:50:28;9.60;99.90
9837;DHT22;4957;51.412;6.724;2023-02-21T05:52:56;9.60;99.90
9837;DHT22;4957;51.412;6.724;2023-02-21T05:55:22;9.60;99.90
9837;DHT22;4957;51.412;6.724;2023-02-21T05:57:47;9.60;99.90
9837;DHT22;4957;51.412;6.724;2023-02-21T06:00:25;9.60;99.90
9837;DHT22;4957;51.412;6.724;2023-02-21T06:02:52;9.50;99.90
9837;DHT22;4957;51.412;6.724;2023-02-21T06:05:19;9.50;99.90
9837;DHT22;4957;51.412;6.724;2023-02-21T06:07:45;9.60;99.90
9837;DHT22;4957;51.412;6.724;2023-02-21T06:10:11;9.60;99.90
9837;DHT22;4957;51.412;6.724;2023-02-21T06:12:37;9.60;99.90
9837;DHT22;4957;51.412;6.724;2023-02-21T06:15:03;9.50;99.90
9837;DHT22;4957;51.412;6.724;2023-02-21T06:17:35;9.50;99.90
9837;DHT22;4957;51.412;6.724;2023-02-21T06:20:01;9.50;99.90
9837;DHT22;4957;51.412;6.724;2023-02-21T06:22:27;9.50;99.90
9837;DHT22;4957;51.412;6.724;2023-02-21T06:24:53;9.50;99.90
9837;DHT22;4957;51.412;6.724;2023-02-21T06:27:18;9.50;99.90
9837;DHT22;4957;51.412;6.724;2023-02-21T06:29:44;9.50;99.90
9837;DHT22;4957;51.412;6.724;2023-02-21T06:32:09;9.50;99.90
9837;DHT22;4957;51.412;6.724;2023-02-21T06:34:35;9.50;99.90
9837;DHT22;4957;51.412;6.724;2023-02-21T06:37:01;9.50;99.90
9837;DHT22;4957;51.412;6.724;2023-02-21T06:39:26;9.50;99.90
9837;DHT22;4957;51.412;6.724;2023-02-21T06:41:52;9.60;99.90
9837;DHT22;4957;51.412;6.724;2023-02-21T06:44:18;9.50;99.90
9837;DHT22;4957;51.412;6.724;2023-02-21T06:46:44;9.50;99.90
9837;DHT22;4957;51.412;6.724;2023-02-21T06:49:11;9.50;99.90
9837;DHT22;4957;51.412;6.724;2023-02-21T06:51:39;9.50;99.90
9837;DHT22;4957;51.412;6.724;2023-02-21T06:54:06;9.50;99.90
9837;DHT22;4957;51.412;6.724;2023-02-21T06:56:34;9.50;99.90
9837;DHT22;4957;51.412;6.724;2023-02-21T06:59:00;9.60;99.90
9837;DHT22;4957;51.412;6.724;2023-02-21T07:01:27;9.50;99.90
9837;DHT22;4957;51.412;6.724;2023-02-21T07:03:55;9.60;99.90
9837;DHT22;4957;51.412;6.724;2023-02-21T07:06:21;9.60;99.90
9837;DHT22;4957;51.412;6.724;2023-02-21T07:08:47;9.50;99.90
9837;DHT22;4957;51.412;6.724;2023-02-21T07:11:13;9.50;99.90
9837;DHT22;4957;51.412;6.724;2023-02-21T07:13:39;9.50;99.90
9837;DHT22;4957;51.412;6.724;2023-02-21T07:16:05;9.50;99.90
9837;DHT22;4957;51.412;6.724;2023-02-21T07:18:32;9.50;99.90
9837;DHT22;4957;51.412;6.724;2023-02-21T07:20:57;9.50;99.90
9837;DHT22;4957;51.412;6.724;2023-02-21T07:23:27;9.50;99.90
9837;DHT22;4957;51.412;6.724;2023-02-21T07:25:52;9.50;99.90
9837;DHT22;4957;51.412;6.724;2023-02-21T07:28:18;9.50;99.90
9837;DHT22;4957;51.412;6.724;2023-02-21T07:30:43;9.50;99.90
9837;DHT22;4957;51.412;6.724;2023-02-21T07:33:09;9.60;99.90
9837;DHT22;4957;51.412;6.724;2023-02-21T07:35:35;9.60;99.90
9837;DHT22;4957;51.412;6.724;2023-02-21T07:38:01;9.60;99.90
9837;DHT22;4957;51.412;6.724;2023-02-21T07:40:26;9.50;99.90
9837;DHT22;4957;51.412;6.724;2023-02-21T07:42:52;9.60;99.90
9837;DHT22;4957;51.412;6.724;2023-02-21T07:45:17;9.60;99.90
9837;DHT22;4957;51.412;6.724;2023-02-21T07:47:46;9.60;99.90
9837;DHT22;4957;51.412;6.724;2023-02-21T07:50:15;9.60;99.90
9837;DHT22;4957;51.412;6.724;2023-02-21T07:52:41;9.60;99.90
9837;DHT22;4957;51.412;6.724;2023-02-21T07:55:07;9.60;99.90
9837;DHT22;4957;51.412;6.724;2023-02-21T07:57:33;9.70;99.90
9837;DHT22;4957;51.412;6.724;2023-02-21T07:59:58;9.70;99.90
9837;DHT22;4957;51.412;6.724;2023-02-21T08:02:24;9.70;99.90
9837;DHT22;4957;51.412;6.724;2023-02-21T08:04:50;9.70;99.90
9837;DHT22;4957;51.412;6.724;2023-02-21T08:07:16;9.70;99.90
9837;DHT22;4957;51.412;6.724;2023-02-21T08:09:42;9.70;99.90
9837;DHT22;4957;51.412;6.724;2023-02-21T08:12:07;9.70;99.90
9837;DHT22;4957;51.412;6.724;2023-02-21T08:14:33;9.70;99.90
9837;DHT22;4957;51.412;6.724;2023-02-21T08:16:59;9.70;99.90
9837;DHT22;4957;51.412;6.724;2023-02-21T08:19:24;9.70;99.90
9837;DHT22;4957;51.412;6.724;2023-02-21T08:21:50;9.80;99.90
9837;DHT22;4957;51.412;6.724;2023-02-21T08:24:17;9.80;99.90
9837;DHT22;4957;51.412;6.724;2023-02-21T08:26:43;9.80;99.90
9837;DHT22;4957;51.412;6.724;2023-02-21T08:29:10;9.80;99.90
9837;DHT22;4957;51.412;6.724;2023-02-21T08:31:38;9.80;99.90
9837;DHT22;4957;51.412;6.724;2023-02-21T08:34:05;9.90;99.90
9837;DHT22;4957;51.412;6.724;2023-02-21T08:36:36;9.90;99.90
9837;DHT22;4957;51.412;6.724;2023-02-21T08:39:02;9.90;99.90
9837;DHT22;4957;51.412;6.724;2023-02-21T08:41:43;9.90;99.90
9837;DHT22;4957;51.412;6.724;2023-02-21T08:44:10;9.90;99.90
9837;DHT22;4957;51.412;6.724;2023-02-21T08:46:36;9.90;99.90
9837;DHT22;4957;51.412;6.724;2023-02-21T08:49:04;10.00;99.90
9837;DHT22;4957;51.412;6.724;2023-02-21T08:51:31;9.90;99.90
9837;DHT22;4957;51.412;6.724;2023-02-21T08:53:57;10.00;99.90
9837;DHT22;4957;51.412;6.724;2023-02-21T08:56:24;10.00;99.90
9837;DHT22;4957;51.412;6.724;2023-02-21T08:58:50;10.00;99.90
9837;DHT22;4957;51.412;6.724;2023-02-21T09:01:16;10.00;99.90
9837;DHT22;4957;51.412;6.724;2023-02-21T09:03:42;10.00;99.90
9837;DHT22;4957;51.412;6.724;2023-02-21T09:06:08;10.00;99.90
9837;DHT22;4957;51.412;6.724;2023-02-21T09:08:34;10.10;99.90
9837;DHT22;4957;51.412;6.724;2023-02-21T09:11:03;10.10;99.90
9837;DHT22;4957;51.412;6.724;2023-02-21T09:13:30;10.10;99.90
9837;DHT22;4957;51.412;6.724;2023-02-21T09:15:58;10.10;99.90
9837;DHT22;4957;51.412;6.724;2023-02-21T09:18:24;10.10;99.90
9837;DHT22;4957;51.412;6.724;2023-02-21T09:20:50;10.10;99.90
9837;DHT22;4957;51.412;6.724;2023-02-21T09:23:19;10.10;99.90
9837;DHT22;4957;51.412;6.724;2023-02-21T09:25:47;10.10;99.90
9837;DHT22;4957;51.412;6.724;2023-02-21T09:28:13;10.20;99.90
9837;DHT22;4957;51.412;6.724;2023-02-21T09:30:40;10.10;99.90
9837;DHT22;4957;51.412;6.724;2023-02-21T09:33:06;10.20;99.90
9837;DHT22;4957;51.412;6.724;2023-02-21T09:35:32;10.20;99.90
9837;DHT22;4957;51.412;6.724;2023-02-21T09:37:58;10.20;99.90
9837;DHT22;4957;51.412;6.724;2023-02-21T09:42:59;10.30;99.90
9837;DHT22;4957;51.412;6.724;2023-02-21T09:45:31;10.30;99.90
9837;DHT22;4957;51.412;6.724;2023-02-21T09:48:00;10.30;99.90
9837;DHT22;4957;51.412;6.724;2023-02-21T09:50:39;10.40;99.90
9837;DHT22;4957;51.412;6.724;2023-02-21T09:53:05;10.40;99.90
9837;DHT22;4957;51.412;6.724;2023-02-21T09:55:39;10.40;99.90
9837;DHT22;4957;51.412;6.724;2023-02-21T09:58:13;10.50;99.90
9837;DHT22;4957;51.412;6.724;2023-02-21T10:00:40;10.50;99.90
9837;DHT22;4957;51.412;6.724;2023-02-21T10:06:51;10.60;99.90
9837;DHT22;4957;51.412;6.724;2023-02-21T10:17:43;10.80;99.90
9837;DHT22;4957;51.412;6.724;2023-02-21T10:22:49;10.90;99.90
9837;DHT22;4957;51.412;6.724;2023-02-21T10:25:24;10.90;99.90
9837;DHT22;4957;51.412;6.724;2023-02-21T10:27:52;11.00;99.90
9837;DHT22;4957;51.412;6.724;2023-02-21T10:30:35;11.00;99.90
9837;DHT22;4957;51.412;6.724;2023-02-21T10:33:03;11.10;99.90
9837;DHT22;4957;51.412;6.724;2023-02-21T10:35:35;11.00;99.90
9837;DHT22;4957;51.412;6.724;2023-02-21T10:38:05;11.10;99.90
9837;DHT22;4957;51.412;6.724;2023-02-21T10:40:41;11.10;99.90
9837;DHT22;4957;51.412;6.724;2023-02-21T10:43:21;11.20;99.90
9837;DHT22;4957;51.412;6.724;2023-02-21T10:48:31;11.20;99.90
9837;DHT22;4957;51.412;6.724;2023-02-21T10:51:07;11.20;99.90
9837;DHT22;4957;51.412;6.724;2023-02-21T10:53:35;11.20;99.90
9837;DHT22;4957;51.412;6.724;2023-02-21T10:58:59;11.30;99.90
9837;DHT22;4957;51.412;6.724;2023-02-21T11:03:56;11.40;99.90
9837;DHT22;4957;51.412;6.724;2023-02-21T11:06:32;11.40;99.90
9837;DHT22;4957;51.412;6.724;2023-02-21T11:08:58;11.40;99.90
9837;DHT22;4957;51.412;6.724;2023-02-21T11:11:39;11.40;99.90
9837;DHT22;4957;51.412;6.724;2023-02-21T11:14:19;11.50;99.90
9837;DHT22;4957;51.412;6.724;2023-02-21T11:17:06;11.50;99.90
9837;DHT22;4957;51.412;6.724;2023-02-21T11:22:44;11.70;99.90
9837;DHT22;4957;51.412;6.724;2023-02-21T11:30:36;11.80;99.90
9837;DHT22;4957;51.412;6.724;2023-02-21T11:33:03;11.80;99.90
9837;DHT22;4957;51.412;6.724;2023-02-21T11:35:34;11.80;99.90
9837;DHT22;4957;51.412;6.724;2023-02-21T11:38:03;11.90;99.90
9837;DHT22;4957;51.412;6.724;2023-02-21T11:40:41;11.90;99.90
9837;DHT22;4957;51.412;6.724;2023-02-21T11:43:26;12.00;99.90
9837;DHT22;4957;51.412;6.724;2023-02-21T11:51:42;12.10;99.90
9837;DHT22;4957;51.412;6.724;2023-02-21T11:54:08;12.10;99.90
9837;DHT22;4957;51.412;6.724;2023-02-21T11:57:03;12.10;99.90
9837;DHT22;4957;51.412;6.724;2023-02-21T12:05:34;12.20;99.90
9837;DHT22;4957;51.412;6.724;2023-02-21T12:14:02;12.30;99.90
9837;DHT22;4957;51.412;6.724;2023-02-21T12:29:55;12.30;99.90
9837;DHT22;4957;51.412;6.724;2023-02-21T12:32:50;12.30;99.90
9837;DHT22;4957;51.412;6.724;2023-02-21T12:35:50;12.30;99.90
9837;DHT22;4957;51.412;6.724;2023-02-21T12:41:54;12.40;99.90
9837;DHT22;4957;51.412;6.724;2023-02-21T12:44:42;12.40;99.90
9837;DHT22;4957;51.412;6.724;2023-02-21T12:52:30;12.40;99.90
9837;DHT22;4957;51.412;6.724;2023-02-21T12:55:06;12.40;99.90
9837;DHT22;4957;51.412;6.724;2023-02-21T13:00:20;12.40;99.90
9837;DHT22;4957;51.412;6.724;2023-02-21T13:05:45;12.40;99.90
9837;DHT22;4957;51.412;6.724;2023-02-21T13:11:33;12.40;99.90
9837;DHT22;4957;51.412;6.724;2023-02-21T13:14:00;12.40;99.90
9837;DHT22;4957;51.412;6.724;2023-02-21T13:16:26;12.40;99.90
9837;DHT22;4957;51.412;6.724;2023-02-21T13:18:57;12.40;99.90
9837;DHT22;4957;51.412;6.724;2023-02-21T13:24:25;12.50;99.90
9837;DHT22;4957;51.412;6.724;2023-02-21T13:29:41;12.50;99.90
9837;DHT22;4957;51.412;6.724;2023-02-21T13:32:12;12.50;99.90
9837;DHT22;4957;51.412;6.724;2023-02-21T13:37:18;12.50;99.90
9837;DHT22;4957;51.412;6.724;2023-02-21T13:39:48;12.50;99.90
9837;DHT22;4957;51.412;6.724;2023-02-21T13:42:16;12.50;99.90
9837;DHT22;4957;51.412;6.724;2023-02-21T13:44:55;12.50;99.90
9837;DHT22;4957;51.412;6.724;2023-02-21T13:55:35;12.50;99.90
9837;DHT22;4957;51.412;6.724;2023-02-21T14:05:25;12.50;99.90
9837;DHT22;4957;51.412;6.724;2023-02-21T14:07:57;12.50;99.90
9837;DHT22;4957;51.412;6.724;2023-02-21T14:10:30;12.50;99.90
9837;DHT22;4957;51.412;6.724;2023-02-21T14:13:00;12.50;99.90
9837;DHT22;4957;51.412;6.724;2023-02-21T14:15:44;12.50;99.90
9837;DHT22;4957;51.412;6.724;2023-02-21T14:18:31;12.50;99.80
9837;DHT22;4957;51.412;6.724;2023-02-21T14:21:14;12.50;99.90
9837;DHT22;4957;51.412;6.724;2023-02-21T14:23:44;12.50;99.90
9837;DHT22;4957;51.412;6.724;2023-02-21T14:29:36;12.50;99.80
9837;DHT22;4957;51.412;6.724;2023-02-21T14:37:35;12.40;99.80
9837;DHT22;4957;51.412;6.724;2023-02-21T14:42:59;12.40;99.90
9837;DHT22;4957;51.412;6.724;2023-02-21T15:07:20;12.40;99.90
9837;DHT22;4957;51.412;6.724;2023-02-21T15:12:40;12.40;99.80
9837;DHT22;4957;51.412;6.724;2023-02-21T15:15:14;12.40;99.90
9837;DHT22;4957;51.412;6.724;2023-02-21T15:17:41;12.40;99.80
9837;DHT22;4957;51.412;6.724;2023-02-21T15:20:16;12.40;99.90
9837;DHT22;4957;51.412;6.724;2023-02-21T15:22:43;12.30;99.80
9837;DHT22;4957;51.412;6.724;2023-02-21T15:27:53;12.30;99.80
9837;DHT22;4957;51.412;6.724;2023-02-21T15:30:26;12.30;99.90
9837;DHT22;4957;51.412;6.724;2023-02-21T15:35:38;12.30;99.80
9837;DHT22;4957;51.412;6.724;2023-02-21T15:38:10;12.30;99.80
9837;DHT22;4957;51.412;6.724;2023-02-21T15:40:39;12.30;99.80
9837;DHT22;4957;51.412;6.724;2023-02-21T15:43:05;12.30;99.90
9837;DHT22;4957;51.412;6.724;2023-02-21T15:45:43;12.30;99.80
9837;DHT22;4957;51.412;6.724;2023-02-21T15:48:11;12.30;99.80
9837;DHT22;4957;51.412;6.724;2023-02-21T15:50:40;12.20;99.80
9837;DHT22;4957;51.412;6.724;2023-02-21T15:53:22;12.20;99.80
9837;DHT22;4957;51.412;6.724;2023-02-21T15:55:50;12.20;99.90
9837;DHT22;4957;51.412;6.724;2023-02-21T15:58:22;12.20;99.90
9837;DHT22;4957;51.412;6.724;2023-02-21T16:03:44;12.20;99.80
9837;DHT22;4957;51.412;6.724;2023-02-21T16:06:28;12.20;99.90
9837;DHT22;4957;51.412;6.724;2023-02-21T16:14:19;12.10;99.90
9837;DHT22;4957;51.412;6.724;2023-02-21T16:16:47;12.10;99.90
9837;DHT22;4957;51.412;6.724;2023-02-21T16:19:19;12.10;99.90
9837;DHT22;4957;51.412;6.724;2023-02-21T16:21:46;12.10;99.90
9837;DHT22;4957;51.412;6.724;2023-02-21T16:24:27;12.10;99.90
9837;DHT22;4957;51.412;6.724;2023-02-21T16:27:05;12.10;99.90
9837;DHT22;4957;51.412;6.724;2023-02-21T16:29:31;12.00;99.80
9837;DHT22;4957;51.412;6.724;2023-02-21T16:31:57;12.10;99.90
9837;DHT22;4957;51.412;6.724;2023-02-21T16:34:25;12.00;99.80
9837;DHT22;4957;51.412;6.724;2023-02-21T16:37:00;12.00;99.90
9837;DHT22;4957;51.412;6.724;2023-02-21T16:39:26;12.00;99.90
9837;DHT22;4957;51.412;6.724;2023-02-21T16:41:52;12.00;99.90
9837;DHT22;4957;51.412;6.724;2023-02-21T16:44:17;12.00;99.90
9837;DHT22;4957;51.412;6.724;2023-02-21T16:46:43;12.00;99.90
9837;DHT22;4957;51.412;6.724;2023-02-21T16:49:10;11.90;99.90
9837;DHT22;4957;51.412;6.724;2023-02-21T16:51:36;11.90;99.90
9837;DHT22;4957;51.412;6.724;2023-02-21T16:54:05;11.90;99.90
9837;DHT22;4957;51.412;6.724;2023-02-21T16:56:33;11.90;99.90
9837;DHT22;4957;51.412;6.724;2023-02-21T16:59:06;11.90;99.90
9837;DHT22;4957;51.412;6.724;2023-02-21T17:01:33;11.90;99.90
9837;DHT22;4957;51.412;6.724;2023-02-21T17:04:03;11.90;99.90
9837;DHT22;4957;51.412;6.724;2023-02-21T17:06:31;11.80;99.90
9837;DHT22;4957;51.412;6.724;2023-02-21T17:08:57;11.90;99.90
9837;DHT22;4957;51.412;6.724;2023-02-21T17:11:24;11.80;99.90
9837;DHT22;4957;51.412;6.724;2023-02-21T17:13:50;11.80;99.90
9837;DHT22;4957;51.412;6.724;2023-02-21T17:16:16;11.80;99.90
9837;DHT22;4957;51.412;6.724;2023-02-21T17:18:45;11.80;99.90
9837;DHT22;4957;51.412;6.724;2023-02-21T17:21:11;11.80;99.90
9837;DHT22;4957;51.412;6.724;2023-02-21T17:23:37;11.80;99.90
9837;DHT22;4957;51.412;6.724;2023-02-21T17:26:05;11.70;99.90
9837;DHT22;4957;51.412;6.724;2023-02-21T17:28:31;11.70;99.90
9837;DHT22;4957;51.412;6.724;2023-02-21T17:30:56;11.70;99.80
9837;DHT22;4957;51.412;6.724;2023-02-21T17:33:22;11.70;99.90
9837;DHT22;4957;51.412;6.724;2023-02-21T17:35:48;11.70;99.80
9837;DHT22;4957;51.412;6.724;2023-02-21T17:38:14;11.70;99.80
9837;DHT22;4957;51.412;6.724;2023-02-21T17:40:40;11.70;99.90
9837;DHT22;4957;51.412;6.724;2023-02-21T17:43:05;11.60;99.90
9837;DHT22;4957;51.412;6.724;2023-02-21T17:45:33;11.60;99.80
9837;DHT22;4957;51.412;6.724;2023-02-21T17:48:01;11.60;99.80
9837;DHT22;4957;51.412;6.724;2023-02-21T17:50:28;11.60;99.80
9837;DHT22;4957;51.412;6.724;2023-02-21T17:52:54;11.60;99.90
9837;DHT22;4957;51.412;6.724;2023-02-21T17:55:22;11.60;99.90
9837;DHT22;4957;51.412;6.724;2023-02-21T17:57:50;11.50;99.80
9837;DHT22;4957;51.412;6.724;2023-02-21T18:03:15;11.50;99.80
9837;DHT22;4957;51.412;6.724;2023-02-21T18:05:45;11.50;99.90
9837;DHT22;4957;51.412;6.724;2023-02-21T18:08:34;11.50;99.90
9837;DHT22;4957;51.412;6.724;2023-02-21T18:11:02;11.50;99.90
9837;DHT22;4957;51.412;6.724;2023-02-21T18:13:32;11.50;99.90
9837;DHT22;4957;51.412;6.724;2023-02-21T18:15:58;11.50;99.90
9837;DHT22;4957;51.412;6.724;2023-02-21T18:18:27;11.50;99.90
9837;DHT22;4957;51.412;6.724;2023-02-21T18:21:01;11.50;99.90
9837;DHT22;4957;51.412;6.724;2023-02-21T18:23:31;11.40;99.90
9837;DHT22;4957;51.412;6.724;2023-02-21T18:26:04;11.40;99.90
9837;DHT22;4957;51.412;6.724;2023-02-21T18:28:38;11.40;99.90
9837;DHT22;4957;51.412;6.724;2023-02-21T18:31:16;11.40;99.90
9837;DHT22;4957;51.412;6.724;2023-02-21T18:33:50;11.40;99.90
9837;DHT22;4957;51.412;6.724;2023-02-21T18:36:23;11.40;99.90
9837;DHT22;4957;51.412;6.724;2023-02-21T18:38:51;11.40;99.90
9837;DHT22;4957;51.412;6.724;2023-02-21T18:41:18;11.30;99.90
9837;DHT22;4957;51.412;6.724;2023-02-21T18:43:56;11.40;99.90
9837;DHT22;4957;51.412;6.724;2023-02-21T18:46:25;11.30;99.90
9837;DHT22;4957;51.412;6.724;2023-02-21T18:48:53;11.30;99.90
9837;DHT22;4957;51.412;6.724;2023-02-21T18:51:21;11.30;99.90
9837;DHT22;4957;51.412;6.724;2023-02-21T18:53:50;11.30;99.90
9837;DHT22;4957;51.412;6.724;2023-02-21T18:56:19;11.30;99.90
9837;DHT22;4957;51.412;6.724;2023-02-21T18:58:50;11.30;99.90
9837;DHT22;4957;51.412;6.724;2023-02-21T19:01:17;11.30;99.90
9837;DHT22;4957;51.412;6.724;2023-02-21T19:03:45;11.30;99.90
9837;DHT22;4957;51.412;6.724;2023-02-21T19:06:12;11.30;99.90
9837;DHT22;4957;51.412;6.724;2023-02-21T19:08:38;11.30;99.90
9837;DHT22;4957;51.412;6.724;2023-02-21T19:11:04;11.30;99.90
9837;DHT22;4957;51.412;6.724;2023-02-21T19:13:30;11.30;99.90
9837;DHT22;4957;51.412;6.724;2023-02-21T19:15:55;11.20;99.90
9837;DHT22;4957;51.412;6.724;2023-02-21T19:18:21;11.20;99.90
9837;DHT22;4957;51.412;6.724;2023-02-21T19:20:47;11.20;99.90
9837;DHT22;4957;51.412;6.724;2023-02-21T19:23:13;11.20;99.90
9837;DHT22;4957;51.412;6.724;2023-02-21T19:25:40;11.20;99.90
9837;DHT22;4957;51.412;6.724;2023-02-21T19:28:06;11.20;99.90
9837;DHT22;4957;51.412;6.724;2023-02-21T19:30:33;11.20;99.90
9837;DHT22;4957;51.412;6.724;2023-02-21T19:33:03;11.20;99.90
9837;DHT22;4957;51.412;6.724;2023-02-21T19:35:31;11.20;99.90
9837;DHT22;4957;51.412;6.724;2023-02-21T19:38:00;11.20;99.90
9837;DHT22;4957;51.412;6.724;2023-02-21T19:40:26;11.20;99.90
9837;DHT22;4957;51.412;6.724;2023-02-21T19:42:51;11.20;99.90
9837;DHT22;4957;51.412;6.724;2023-02-21T19:45:18;11.20;99.90
9837;DHT22;4957;51.412;6.724;2023-02-21T19:47:44;11.10;99.90